• Join FlightAware (Why Join?)
  • Login
  • US Flag 
05:45AM EDT


 

Airport Tracker/Info


-or-


 

Live Flight TrackerFlight Track Log ✈ SWA1275 ✈ 23-Nov-2013 ✈ KMSY - KDEN

Flight Track Log - Related Links

Times and Time Zones

All times are in EST time to prevent confusion due to time zone crossing. See the SWA1275 flight status page for this flight to view local times or setup timezone preferences in your user account.

Time Position Orientation Groundspeed Altitude Reporting Facility
EST Latitude Longitude Course Direction KTS MPH feet Rate Location/Type
07:19AM 30.0092 -90.2453 19° North 148 170 600  Level Houston Center
07:19AM 30.0156 -90.2428 19° North 154 177 1,100 1,980 Climbing Houston Center
07:19AM 30.0183 -90.2419 15° North 158 182 1,100 1,980 Level Houston Center
07:20AM 30.0714 -90.2319 North 197 227 3,400 2,160 Climbing Houston Center
07:21AM 30.1319 -90.2542 342° North 242 278 5,500 2,640 Climbing Houston Center
07:22AM 30.1847 -90.3197 313° West 265 305 8,800 2,700 Climbing Houston Center
07:23AM 30.2394 -90.3900 312° West 285 328 11,000 2,400 Climbing Houston Center
07:24AM 30.3075 -90.4742 313° West 348 400 13,700 2,700 Climbing Houston Center
07:25AM 30.3767 -90.5589 313° West 361 415 16,500 2,580 Climbing Houston Center
07:26AM 30.4494 -90.6517 312° West 383 441 19,000 2,460 Climbing Houston Center
07:27AM 30.5242 -90.7481 312° West 397 457 21,600 2,400 Climbing Houston Center
07:28AM 30.6000 -90.8461 312° West 407 468 23,900 2,100 Climbing Houston Center
07:29AM 30.6789 -90.9492 312° West 423 487 25,900 1,980 Climbing Houston Center
07:30AM 30.7589 -91.0542 312° West 432 497 28,000 2,220 Climbing Houston Center
07:31AM 30.8531 -91.1778 312° West 436 502 30,400 2,400 Climbing Houston Center
07:32AM 30.9314 -91.2806 312° West 431 496 33,000 1,740 Climbing Houston Center
07:33AM 31.0058 -91.3789 311° West 413 475 34,000 780 Climbing Houston Center
07:34AM 31.0797 -91.4783 311° West 408 470 34,600 1,080 Climbing Houston Center
07:35AM 31.1550 -91.5764 312° West 407 468 36,200 1,500 Climbing Houston Center
07:36AM 31.2286 -91.6725 312° West 402 463 37,700 840 Climbing Houston Center
07:37AM 31.2992 -91.7689 311° West 395 455 38,000 120 Climbing Houston Center
07:38AM 31.3717 -91.8636 312° West 393 452 38,000  Level Houston Center
07:39AM 31.4433 -91.9583 312° West 391 450 38,000  Level Houston Center
07:40AM 31.5139 -92.0539 311° West 387 445 38,000  Level Houston Center
07:41AM 31.5842 -92.1494 311° West 386 444 38,000  Level Houston Center
07:42AM 31.6522 -92.2425 311° West 383 441 38,000  Level Houston Center
07:43AM 31.7236 -92.3367 312° West 384 442 38,000  Level Houston Center
07:44AM 31.7936 -92.4319 311° West 387 445 38,000  Level Houston Center
07:45AM 31.8647 -92.5278 311° West 389 448 38,000  Level Houston Center
07:46AM 31.9342 -92.6222 311° West 385 443 38,000  Level Houston Center
07:47AM 32.0197 -92.7375 311° West 389 448 38,000  Level Houston Center
07:48AM 32.0867 -92.8297 311° West 389 448 38,000  Level Houston Center
07:49AM 32.1300 -92.8872 312° West 388 447 38,000  Level Fort Worth Center
07:50AM 32.2003 -92.9853 310° West 392 451 38,000  Level Fort Worth Center
07:51AM 32.2708 -93.0817 311° West 390 449 38,000  Level Fort Worth Center
07:52AM 32.3322 -93.1678 310° West 388 447 38,000  Level Fort Worth Center
07:53AM 32.4042 -93.2658 311° West 394 453 38,000  Level Fort Worth Center
07:54AM 32.4747 -93.3647 310° West 393 452 38,000  Level Fort Worth Center
07:55AM 32.5461 -93.4625 311° West 392 451 38,000  Level Fort Worth Center
07:56AM 32.6308 -93.5831 310° West 395 455 38,000  Level Fort Worth Center
07:57AM 32.7028 -93.6825 311° West 396 456 38,000  Level Fort Worth Center
07:58AM 32.7736 -93.7828 310° West 396 456 38,000 240 Level Fort Worth Center
07:59AM 32.8461 -93.8836 311° West 399 459 38,600 780 Climbing Fort Worth Center
08:00AM 32.9172 -93.9847 310° West 397 457 39,600 660 Climbing Fort Worth Center
08:01AM 32.9872 -94.0861 309° West 395 455 40,000 180 Climbing Fort Worth Center
08:02AM 33.0586 -94.1878 310° West 397 457 40,000  Level Fort Worth Center
08:03AM 33.1297 -94.2881 310° West 394 453 40,000  Level Fort Worth Center
08:04AM 33.2014 -94.3872 311° West 393 452 40,000  Level Fort Worth Center
08:05AM 33.2703 -94.4872 310° West 388 447 40,000  Level Fort Worth Center
08:06AM 33.3400 -94.5869 310° West 392 451 40,000  Level Fort Worth Center
08:07AM 33.4100 -94.6861 310° West 392 451 40,000  Level Fort Worth Center
08:08AM 33.4792 -94.7858 310° West 392 451 40,000  Level Fort Worth Center
08:09AM 33.5478 -94.8861 309° West 391 450 40,000  Level Fort Worth Center
08:10AM 33.6161 -94.9850 310° West 388 447 40,000  Level Fort Worth Center
08:11AM 33.6853 -95.0850 310° West 390 449 40,000  Level Fort Worth Center
08:12AM 33.7531 -95.1844 309° West 387 445 40,000  Level Fort Worth Center
08:13AM 33.8203 -95.2850 309° West 388 447 40,000  Level Fort Worth Center
08:14AM 33.8892 -95.3844 310° West 388 447 40,000  Level Fort Worth Center
08:15AM 33.9569 -95.4836 310° West 385 443 40,000  Level Fort Worth Center
08:16AM 34.0314 -95.5922 310° West 388 447 40,000  Level Fort Worth Center
08:17AM 34.0992 -95.6944 309° West 382 440 40,000  Level Fort Worth Center
08:18AM 34.1667 -95.7925 310° West 380 437 40,000  Level Fort Worth Center
08:19AM 34.2322 -95.8908 309° West 375 432 40,000  Level Fort Worth Center
08:20AM 34.2978 -95.9867 310° West 371 427 40,000  Level Fort Worth Center
08:21AM 34.3636 -96.0861 309° West 376 433 40,000  Level Fort Worth Center
08:22AM 34.4281 -96.1850 308° West 367 422 40,000  Level Fort Worth Center
08:23AM 34.4942 -96.2814 310° West 369 425 40,000  Level Fort Worth Center
08:24AM 34.5608 -96.3808 309° West 378 435 40,000  Level Fort Worth Center
08:25AM 34.6267 -96.4814 309° West 380 437 40,000  Level Fort Worth Center
08:26AM 34.6925 -96.5819 309° West 381 438 40,000  Level Fort Worth Center
08:27AM 34.7592 -96.6831 309° West 383 441 40,000  Level Fort Worth Center
08:28AM 34.8383 -96.8044 308° West 382 440 40,000  Level Fort Worth Center
08:29AM 34.9050 -96.9083 308° West 389 448 40,000  Level Fort Worth Center
08:30AM 34.9706 -97.0100 308° West 386 444 40,000  Level Fort Worth Center
08:31AM 35.0328 -97.1153 306° West 382 440 40,000  Level Fort Worth Center
08:32AM 35.0956 -97.2208 306° West 383 441 40,000  Level Fort Worth Center
08:33AM 35.1586 -97.3269 306° West 383 441 40,000  Level Fort Worth Center
08:34AM 35.2222 -97.4358 306° West 388 447 40,000  Level Fort Worth Center
08:35AM 35.2869 -97.5442 306° West 389 448 40,000  Level Fort Worth Center
08:36AM 35.3514 -97.6511 306° West 387 445 40,000  Level Fort Worth Center
08:37AM 35.4147 -97.7581 306° West 385 443 40,000  Level Fort Worth Center
08:38AM 35.4775 -97.8636 306° West 383 441 40,000  Level Fort Worth Center
08:39AM 35.5397 -97.9697 306° West 382 440 40,000  Level Fort Worth Center
08:40AM 35.6011 -98.0756 306° West 381 438 40,000  Level Fort Worth Center
08:41AM 35.6625 -98.1797 306° West 375 432 40,000  Level Fort Worth Center
08:42AM 35.7217 -98.2800 306° West 376 433 40,000  Level Fort Worth Center
08:43AM 35.7814 -98.3844 305° West 372 428 40,000  Level Fort Worth Center
08:44AM 35.8411 -98.4878 306° West 370 426 40,000  Level Fort Worth Center
08:45AM 35.8997 -98.5906 305° West 367 422 40,000  Level Fort Worth Center
08:46AM 35.9594 -98.6944 305° West 370 426 40,000  Level Fort Worth Center
08:47AM 36.0311 -98.8189 305° West 372 428 40,000  Level Fort Worth Center
08:48AM 36.0897 -98.9233 305° West 372 428 40,000  Level Fort Worth Center
08:50AM 36.1481 -99.0261 305° West 370 426 40,000  Level Fort Worth Center
08:51AM 36.2069 -99.1294 305° West 373 429 40,000  Level Fort Worth Center
08:52AM 36.2647 -99.2342 304° West 372 428 40,000  Level Fort Worth Center
08:53AM 36.3244 -99.3392 305° West 372 428 40,000  Level Fort Worth Center
08:54AM 36.3828 -99.4453 304° West 373 429 40,000  Level Fort Worth Center
08:55AM 36.4417 -99.5503 305° West 370 426 40,000  Level Fort Worth Center
08:56AM 36.5025 -99.6589 305° West 380 437 40,000  Level Fort Worth Center
08:57AM 36.5744 -99.7869 305° West 377 434 40,000  Level Fort Worth Center
08:58AM 36.6328 -99.8947 304° West 376 433 40,000  Level Fort Worth Center
08:59AM 36.7031 -100.0228 304° West 372 428 40,000  Level Kansas City Center
09:00AM 36.7633 -100.1322 305° West 370 426 40,000  Level Kansas City Center
09:01AM 36.8264 -100.2500 304° West 366 421 40,000  Level Kansas City Center
09:02AM 36.8822 -100.3494 305° West 365 420 40,000  Level Kansas City Center
09:03AM 36.9367 -100.4506 304° West 365 420 40,000  Level Kansas City Center
09:04AM 37.0000 -100.5675 304° West 364 419 40,000  Level Kansas City Center
09:05AM 37.0561 -100.6678 305° West 365 420 40,000  Level Kansas City Center
09:06AM 37.1200 -100.7858 304° West 366 421 40,000  Level Kansas City Center
09:07AM 37.1756 -100.8869 305° West 367 422 40,000  Level Kansas City Center
09:08AM 37.2297 -100.9911 303° West 368 423 40,000  Level Kansas City Center
09:09AM 37.2872 -101.0972 304° West 377 434 40,000  Level Kansas City Center
09:10AM 37.3519 -101.2200 304° West 377 434 40,000  Level Kansas City Center
09:11AM 37.4064 -101.3239 303° West 372 428 40,000  Level Kansas City Center
09:12AM 37.4622 -101.4269 304° West 371 427 40,000  Level Kansas City Center
09:13AM 37.5261 -101.5483 304° West 370 426 40,000  Level Kansas City Center
09:14AM 37.5803 -101.6511 304° West 369 425 40,000  Level Kansas City Center
09:15AM 37.6339 -101.7533 304° West 366 421 40,000  Level Kansas City Center
09:16AM 37.6964 -101.8731 303° West 365 420 40,000  Level Kansas City Center
09:17AM 37.7500 -101.9764 303° West 367 422 40,000  Level Kansas City Center
09:18AM 37.8139 -102.0992 303° West 371 427 40,000  Level Kansas City Center
09:19AM 37.8536 -102.1672 306° West 375 432 40,000  Level Denver Center
09:20AM 37.9394 -102.2794 314° West 392 451 40,000  Level Denver Center
09:21AM 38.0108 -102.3767 313° West 394 453 40,000  Level Denver Center
09:22AM 38.0819 -102.4736 313° West 392 451 40,100  Climbing Denver Center
09:23AM 38.1631 -102.5861 313° West 387 445 40,000  Descending Denver Center
09:24AM 38.2339 -102.6828 313° West 389 448 40,100  Climbing Denver Center
09:25AM 38.3047 -102.7792 313° West 390 449 40,000 -60 Descending Denver Center
09:26AM 38.3744 -102.8761 313° West 388 447 40,000  Level Denver Center
09:27AM 38.4567 -102.9900 313° West 390 449 40,000  Level Denver Center
09:28AM 38.5269 -103.0875 313° West 389 448 40,100 -660 Climbing Denver Center
09:29AM 38.5953 -103.1825 313° West 393 452 38,700 -1,920 Descending Denver Center
09:30AM 38.6683 -103.2850 312° West 392 451 36,200 -2,340 Descending Denver Center
09:31AM 38.7589 -103.4089 313° West 396 456 34,100 -1,140 Descending Denver Center
09:32AM 38.8239 -103.5047 311° West 402 463 34,000 -1,380 Descending Denver Center
09:33AM 38.9072 -103.6222 312° West 401 461 31,300 -2,460 Descending Denver Center
09:34AM 38.9803 -103.7258 312° West 396 456 29,100 -2,220 Descending Denver Center
09:35AM 39.0500 -103.8239 312° West 379 436 26,900 -2,100 Descending Denver Center
09:36AM 39.1167 -103.9189 312° West 364 419 24,900 -2,040 Descending Denver Center
09:37AM 39.1839 -104.0156 312° West 363 418 22,800 -1,740 Descending Denver Center
09:38AM 39.2631 -104.1258 313° West 401 461 21,500 -1,560 Descending Denver Center
09:39AM 39.3483 -104.1972 327° Northwest 360 414 19,700 -1,740 Descending Denver Center
09:40AM 39.4297 -104.2639 328° Northwest 347 399 18,000 -1,320 Descending Denver Center
09:41AM 39.5081 -104.3278 328° Northwest 331 381 17,100 -600 Descending Denver Center
09:42AM 39.5803 -104.3872 328° Northwest 309 356 16,800 -960 Descending Denver Center
09:43AM 39.6514 -104.4467 327° Northwest 285 328 15,200 -1,500 Descending Denver Center
09:44AM 39.7197 -104.5011 329° Northwest 287 330 13,800 -1,440 Descending Denver Center
09:45AM 39.7978 -104.5244 347° North 303 349 12,300 -1,260 Descending Denver Center
09:46AM 39.8814 -104.5214 North 304 350 11,300 -780 Descending Denver Center
09:47AM 39.9581 -104.5214 360° North 280 322 10,800 -900 Descending Denver Center
09:48AM 40.0197 -104.5511 340° North 238 274 9,600 -1,500 Descending Denver Center
09:49AM 40.0167 -104.6167 267° West 234 269 8,100 -1,080 Descending Denver TRACON
09:50AM 40.0000 -104.6833 252° West 202 232 7,700 -840 Descending Denver TRACON
09:51AM 39.9500 -104.6833 180° South 159 183 6,500 -1,020 Descending Denver TRACON
09:52AM 39.9167 -104.6833 180° South 141 162 5,800 -780 Descending Denver TRACON
09:54AM 39.8617 -104.6732 North  Level Estimated
10:01AM 39.8617 -104.6732 North  Level Estimated
10:02AM 39.8617 -104.6732 North  Level Estimated
10:03AM 39.8617 -104.6732 North  Level Estimated
10:04AM 39.8617 -104.6732 North  Level Estimated